createdAt,value
2023-01-17T00:13:56.712Z,1.30
2023-01-17T00:20:48.551Z,1.47
2023-01-17T00:23:40.211Z,0.98
2023-01-17T00:26:14.731Z,2.22
2023-01-17T00:28:43.407Z,2.08
2023-01-17T00:31:13.056Z,1.65
2023-01-17T00:33:40.502Z,2.07
2023-01-17T00:36:10.073Z,2.47
2023-01-17T00:38:38.813Z,2.25
2023-01-17T01:06:16.053Z,2.22
2023-01-17T01:09:01.930Z,2.30
2023-01-17T01:11:47.916Z,3.20
2023-01-17T01:14:33.692Z,4.28
2023-01-17T01:17:19.870Z,2.55
2023-01-17T01:20:05.663Z,1.58
2023-01-17T01:22:52.519Z,1.23
2023-01-17T01:25:38.381Z,2.15
2023-01-17T01:28:25.201Z,1.38
2023-01-17T01:31:11.217Z,1.88
2023-01-17T01:33:39.852Z,1.60
2023-01-17T01:36:09.680Z,2.27
2023-01-17T01:38:39.624Z,1.50
2023-01-17T01:41:08.850Z,2.42
2023-01-17T01:43:48.546Z,3.33
2023-01-17T01:49:55.916Z,2.47
2023-01-17T01:52:30.231Z,2.25
2023-01-17T01:55:03.685Z,2.13
2023-01-17T01:57:36.291Z,3.13
2023-01-17T02:00:08.827Z,2.60
2023-01-17T02:02:40.600Z,2.93
2023-01-17T02:05:10.944Z,2.33
2023-01-17T02:07:44.591Z,2.60
2023-01-17T02:10:14.217Z,2.72
2023-01-17T02:13:07.984Z,2.95
2023-01-17T02:15:46.667Z,2.47
2023-01-17T02:18:22.280Z,2.47
2023-01-17T02:21:12.786Z,2.80
2023-01-17T02:24:07.881Z,2.20
2023-01-17T02:26:52.150Z,2.30
2023-01-17T02:30:03.834Z,4.23
2023-01-17T02:32:44.896Z,1.98
2023-01-17T03:06:36.542Z,2.57
2023-01-17T03:09:05.802Z,1.60
2023-01-17T03:11:56.902Z,3.85
2023-01-17T03:14:25.443Z,1.98
2023-01-17T03:16:54.784Z,4.72
2023-01-17T03:19:26.290Z,5.30
2023-01-17T03:21:56.150Z,6.18
2023-01-17T03:24:27.757Z,5.35
2023-01-17T03:39:17.132Z,2.80
2023-01-17T03:41:45.568Z,1.63
2023-01-17T03:44:14.108Z,2.40
2023-01-17T03:46:42.522Z,1.88
2023-01-17T03:49:11.273Z,1.83
2023-01-17T03:51:43.782Z,2.55
2023-01-17T03:54:14.809Z,2.13
2023-01-17T03:56:44.475Z,3.22
2023-01-17T03:59:13.356Z,2.45
2023-01-17T04:01:41.969Z,2.93
2023-01-17T04:04:10.468Z,3.40
2023-01-17T04:06:38.925Z,3.65
2023-01-17T04:09:07.410Z,2.22
2023-01-17T04:11:35.897Z,2.88
2023-01-17T04:14:05.318Z,3.37
2023-01-17T04:16:33.887Z,2.10
2023-01-17T04:19:02.355Z,4.45
2023-01-17T04:21:30.741Z,2.30
2023-01-17T04:23:59.112Z,3.83
2023-01-17T04:27:09.545Z,2.00
2023-01-17T04:30:01.405Z,3.10
2023-01-17T04:32:32.659Z,3.72
2023-01-17T04:35:07.177Z,1.85
2023-01-17T04:37:55.774Z,3.83
2023-01-17T04:40:27.519Z,4.50
2023-01-17T04:42:56.076Z,2.47
2023-01-17T04:45:25.577Z,4.85
2023-01-17T04:47:54.287Z,8.15
2023-01-17T04:50:22.739Z,7.45
2023-01-17T04:53:17.824Z,3.23
2023-01-17T04:55:52.209Z,2.22
2023-01-17T04:58:20.849Z,2.88
2023-01-17T05:00:51.238Z,5.18
2023-01-17T05:03:21.115Z,2.78
2023-01-17T05:06:07.480Z,4.00
2023-01-17T05:12:29.216Z,3.60
2023-01-17T05:14:57.900Z,3.72
2023-01-17T05:17:27.503Z,2.70
2023-01-17T05:20:17.172Z,4.73
2023-01-17T05:24:32.367Z,3.00
2023-01-17T05:27:03.837Z,3.17
2023-01-17T05:29:32.431Z,2.38
2023-01-17T05:32:00.866Z,3.53
2023-01-17T05:34:30.604Z,5.30
2023-01-17T05:36:59.032Z,2.47
2023-01-17T05:39:29.758Z,8.27
2023-01-17T05:41:58.435Z,4.30
2023-01-17T05:44:29.794Z,3.38
2023-01-17T05:46:58.182Z,3.23
2023-01-17T05:49:28.035Z,4.00
2023-01-17T05:51:58.003Z,6.53
2023-01-17T05:54:26.484Z,3.50
2023-01-17T05:56:57.482Z,4.15
2023-01-17T05:59:36.578Z,7.80
2023-01-17T06:02:06.222Z,3.47
2023-01-17T06:04:35.049Z,3.90
2023-01-17T06:07:04.860Z,2.92
2023-01-17T06:09:33.392Z,4.10
2023-01-17T06:12:01.990Z,7.60
2023-01-17T06:14:30.569Z,4.53
2023-01-17T06:16:59.290Z,3.28
2023-01-17T06:19:31.465Z,3.08
2023-01-17T06:22:00.102Z,5.28
2023-01-17T06:24:30.469Z,4.17
2023-01-17T06:26:59.110Z,4.72
2023-01-17T06:29:27.664Z,4.22
2023-01-17T06:31:56.234Z,5.20
2023-01-17T06:34:24.863Z,3.50
2023-01-17T06:36:53.497Z,5.10
2023-01-17T06:39:21.937Z,4.40
2023-01-17T06:41:51.554Z,6.25
2023-01-17T06:44:20.152Z,5.95
2023-01-17T06:46:48.826Z,6.68
2023-01-17T06:49:17.362Z,5.03
2023-01-17T06:51:45.927Z,5.88
2023-01-17T06:54:14.520Z,6.53
2023-01-17T06:56:43.242Z,3.88
2023-01-17T06:59:14.833Z,5.43
2023-01-17T07:01:43.298Z,6.80
2023-01-17T07:04:11.795Z,7.38
2023-01-17T07:06:40.169Z,5.30
2023-01-17T07:09:09.244Z,4.80
2023-01-17T07:11:37.959Z,5.03
2023-01-17T07:14:06.881Z,16.57
2023-01-17T07:16:37.273Z,5.88
2023-01-17T07:19:06.144Z,4.32
2023-01-17T07:21:36.617Z,7.88
2023-01-17T07:24:11.300Z,5.10
2023-01-17T07:26:40.920Z,4.47
2023-01-17T07:29:10.115Z,6.60
2023-01-17T07:31:40.672Z,5.13
2023-01-17T07:34:09.345Z,5.88
2023-01-17T07:36:38.158Z,6.10
2023-01-17T07:39:06.916Z,12.97
2023-01-17T07:41:41.212Z,5.20
2023-01-17T07:44:11.452Z,5.78
2023-01-17T07:46:41.388Z,7.60
2023-01-17T07:49:09.965Z,8.63
2023-01-17T07:51:38.606Z,5.07
2023-01-17T07:54:07.406Z,5.43
2023-01-17T07:56:36.087Z,5.18
2023-01-17T07:59:07.496Z,7.15
2023-01-17T08:01:37.953Z,5.70
2023-01-17T08:04:09.419Z,6.50
2023-01-17T08:06:40.208Z,5.03
2023-01-17T08:09:08.598Z,5.00
2023-01-17T08:11:36.920Z,7.82
2023-01-17T08:14:05.482Z,5.85
2023-01-17T08:16:34.013Z,5.73
2023-01-17T08:19:02.472Z,6.50
2023-01-17T08:21:32.298Z,5.90
2023-01-17T08:24:00.787Z,5.57
2023-01-17T08:26:29.203Z,4.70
2023-01-17T08:29:06.246Z,8.57
2023-01-17T08:31:36.719Z,5.85
2023-01-17T08:34:05.401Z,4.72
2023-01-17T08:36:35.006Z,4.15
2023-01-17T08:39:03.588Z,5.95
2023-01-17T08:41:32.381Z,5.27
2023-01-17T08:44:00.894Z,7.22
2023-01-17T08:46:31.368Z,5.03
2023-01-17T08:49:02.861Z,4.03
2023-01-17T08:51:32.800Z,4.63
2023-01-17T08:54:02.500Z,6.57
2023-01-17T08:56:31.004Z,7.68
2023-01-17T08:58:59.887Z,6.93
2023-01-17T09:01:28.424Z,6.30
2023-01-17T09:03:57.150Z,5.70
2023-01-17T09:06:25.894Z,6.00
2023-01-17T09:08:54.938Z,5.57
2023-01-17T09:11:24.614Z,6.63
2023-01-17T09:13:53.401Z,6.13
2023-01-17T09:16:22.136Z,5.88
2023-01-17T09:18:50.755Z,9.73
2023-01-17T09:21:19.916Z,5.03
2023-01-17T09:23:48.684Z,5.32
2023-01-17T09:26:22.822Z,6.95
2023-01-17T09:28:52.593Z,10.65
2023-01-17T09:31:22.564Z,6.40
2023-01-17T09:33:51.862Z,5.10
2023-01-17T09:36:20.537Z,5.43
2023-01-17T09:38:58.944Z,6.43
2023-01-17T09:41:37.213Z,5.97
2023-01-17T09:44:24.552Z,5.80
2023-01-17T09:46:55.374Z,4.40
2023-01-17T09:49:39.011Z,6.85
2023-01-17T09:52:09.350Z,7.18
2023-01-17T09:54:41.512Z,6.45
2023-01-17T09:57:25.794Z,8.60
2023-01-17T10:00:04.291Z,9.02
2023-01-17T10:02:52.517Z,6.03
2023-01-17T10:05:33.322Z,9.07
2023-01-17T10:08:16.843Z,6.97
2023-01-17T10:10:55.979Z,5.37
2023-01-17T10:13:40.109Z,5.90
2023-01-17T10:16:19.763Z,7.15
2023-01-17T10:19:16.996Z,6.78
2023-01-17T10:22:02.137Z,4.50
2023-01-17T10:25:04.259Z,8.20
2023-01-17T10:27:35.683Z,6.75
2023-01-17T10:30:12.934Z,5.22
2023-01-17T10:32:47.278Z,5.35
2023-01-17T10:35:24.931Z,4.95
2023-01-17T10:37:57.105Z,4.67
2023-01-17T10:40:32.528Z,5.18
2023-01-17T10:43:05.937Z,3.90
2023-01-17T10:45:41.385Z,3.47
2023-01-17T10:48:17.074Z,4.07
2023-01-17T10:50:57.279Z,6.70
2023-01-17T10:53:38.675Z,7.40
2023-01-17T10:56:07.539Z,8.43
2023-01-17T10:58:35.932Z,8.52
2023-01-17T11:01:15.057Z,4.25
2023-01-17T11:03:49.505Z,3.23
2023-01-17T11:06:20.237Z,3.17
2023-01-17T11:08:56.488Z,5.78
2023-01-17T11:11:30.191Z,4.88
2023-01-17T11:14:00.939Z,3.58
2023-01-17T11:16:32.490Z,5.20
2023-01-17T11:19:15.310Z,5.30
2023-01-17T11:21:52.192Z,4.32
2023-01-17T11:24:27.414Z,3.58
2023-01-17T11:26:56.922Z,5.32
2023-01-17T11:29:36.798Z,4.70
2023-01-17T11:32:31.152Z,2.50
2023-01-17T11:35:18.250Z,4.38
2023-01-17T11:37:54.254Z,3.78
2023-01-17T11:40:26.818Z,3.50
2023-01-17T11:43:21.103Z,5.17
2023-01-17T11:46:03.431Z,4.25
2023-01-17T11:48:37.472Z,7.40
2023-01-17T11:51:20.839Z,5.72
2023-01-17T11:53:49.492Z,5.35
2023-01-17T11:56:30.597Z,6.77
2023-01-17T11:59:27.834Z,4.35
2023-01-17T12:02:20.385Z,6.18
2023-01-17T12:04:53.829Z,6.90
2023-01-17T12:07:33.157Z,4.70
2023-01-17T12:10:09.636Z,4.90
2023-01-17T12:13:06.669Z,3.63
2023-01-17T12:15:49.547Z,3.83
2023-01-17T12:18:32.205Z,5.53
2023-01-17T12:21:14.076Z,7.53
2023-01-17T12:24:08.557Z,4.37
2023-01-17T12:26:41.423Z,4.05
2023-01-17T12:29:45.362Z,3.85
2023-01-17T12:32:32.567Z,4.43
2023-01-17T12:35:07.527Z,4.68
2023-01-17T12:37:39.191Z,3.30
2023-01-17T12:40:24.061Z,4.10
2023-01-17T12:42:57.562Z,4.07
2023-01-17T12:45:32.049Z,3.42
2023-01-17T12:48:05.158Z,4.20
2023-01-17T12:50:39.349Z,5.80
2023-01-17T12:53:19.706Z,3.63
2023-01-17T12:55:55.582Z,5.03
2023-01-17T12:58:26.998Z,3.92
2023-01-17T13:01:03.861Z,5.25
2023-01-17T13:03:43.589Z,2.77
2023-01-17T13:06:20.925Z,2.83
2023-01-17T13:08:54.761Z,3.58
2023-01-17T13:11:30.159Z,5.38
2023-01-17T13:13:59.917Z,3.05
2023-01-17T13:16:34.738Z,3.67
2023-01-17T13:19:12.556Z,2.95
2023-01-17T13:21:42.568Z,4.72
2023-01-17T13:24:23.205Z,4.15
2023-01-17T13:27:19.826Z,3.58
2023-01-17T13:30:05.026Z,4.43
2023-01-17T13:32:50.207Z,2.85
2023-01-17T13:35:23.779Z,3.90
2023-01-17T13:38:35.641Z,6.60
2023-01-17T13:41:13.971Z,3.58
2023-01-17T13:44:06.129Z,4.63
2023-01-17T13:46:57.178Z,3.67
2023-01-17T13:49:35.427Z,5.28
2023-01-17T13:52:09.643Z,5.78
2023-01-17T13:54:45.956Z,3.70
2023-01-17T13:57:40.184Z,3.03
2023-01-17T14:00:59.358Z,4.70
2023-01-17T14:04:06.732Z,4.35
2023-01-17T14:06:41.605Z,5.95
2023-01-17T14:09:18.174Z,4.20
2023-01-17T14:12:07.923Z,5.23
2023-01-17T14:14:44.167Z,3.75
2023-01-17T14:17:52.734Z,4.07
2023-01-17T14:20:53.280Z,5.20
2023-01-17T14:23:48.557Z,2.97
2023-01-17T14:26:32.596Z,4.20
2023-01-17T14:29:01.381Z,5.65
2023-01-17T14:31:42.224Z,4.43
2023-01-17T14:34:14.948Z,4.30
2023-01-17T14:36:44.478Z,4.35
2023-01-17T14:39:22.125Z,4.60
2023-01-17T14:41:50.809Z,3.75
2023-01-17T14:44:19.183Z,5.60
2023-01-17T14:46:50.160Z,3.15
2023-01-17T14:49:24.260Z,5.20
2023-01-17T14:52:04.829Z,5.87
2023-01-17T14:54:33.526Z,4.85
2023-01-17T14:57:27.410Z,4.68
2023-01-17T15:00:14.529Z,4.82
2023-01-17T15:02:46.273Z,4.18
2023-01-17T15:05:16.376Z,4.90
2023-01-17T15:07:48.783Z,8.13
2023-01-17T15:10:19.819Z,3.83
2023-01-17T15:12:48.390Z,6.60
2023-01-17T15:15:32.140Z,4.72
2023-01-17T15:18:18.055Z,3.50
2023-01-17T15:20:52.329Z,3.60
2023-01-17T15:23:23.513Z,5.10
2023-01-17T15:25:54.037Z,5.50
2023-01-17T15:28:22.714Z,4.13
2023-01-17T15:31:09.733Z,4.77
2023-01-17T15:33:39.913Z,4.90
2023-01-17T15:36:12.752Z,5.15
2023-01-17T15:38:51.183Z,6.53
2023-01-17T15:41:24.706Z,4.40
2023-01-17T15:43:57.601Z,4.10
2023-01-17T15:46:31.538Z,4.35
2023-01-17T15:49:17.869Z,4.32
2023-01-17T15:51:53.015Z,3.90
2023-01-17T15:54:41.379Z,5.93
2023-01-17T15:57:26.596Z,5.27
2023-01-17T15:59:58.458Z,4.10
2023-01-17T16:02:42.912Z,4.70
2023-01-17T16:05:38.727Z,4.68
2023-01-17T16:08:38.788Z,5.25
2023-01-17T16:11:12.472Z,5.47
2023-01-17T16:13:43.205Z,4.38
2023-01-17T16:16:25.281Z,7.63
2023-01-17T16:19:01.201Z,7.70
2023-01-17T16:21:31.125Z,9.18
2023-01-17T16:24:00.640Z,9.03
2023-01-17T16:26:30.341Z,6.75
2023-01-17T16:28:58.952Z,5.75
2023-01-17T16:31:27.400Z,6.28
2023-01-17T16:33:59.832Z,6.07
2023-01-17T16:36:28.917Z,5.83
2023-01-17T16:38:57.618Z,6.65
2023-01-17T16:41:26.921Z,6.03
2023-01-17T16:44:03.388Z,10.55
2023-01-17T16:46:33.462Z,7.78
2023-01-17T16:49:02.433Z,4.73
2023-01-17T16:51:31.077Z,6.90
2023-01-17T16:53:59.786Z,4.70
2023-01-17T16:56:31.478Z,4.75
2023-01-17T16:59:04.667Z,5.85
2023-01-17T17:01:37.260Z,8.20
2023-01-17T17:04:06.304Z,5.45
2023-01-17T17:06:36.427Z,8.32
2023-01-17T17:09:07.079Z,6.35
2023-01-17T17:11:35.903Z,5.18
2023-01-17T17:14:08.726Z,5.77
2023-01-17T17:16:44.478Z,5.18
2023-01-17T17:19:13.267Z,6.97
2023-01-17T17:21:50.020Z,6.65
2023-01-17T17:24:19.853Z,6.38
2023-01-17T17:26:49.790Z,9.50
2023-01-17T17:29:19.666Z,9.32
2023-01-17T17:31:57.085Z,7.95
2023-01-17T17:34:27.685Z,10.43
2023-01-17T17:36:57.807Z,44.42
2023-01-17T17:39:26.489Z,41.20
2023-01-17T17:41:55.289Z,22.95
2023-01-17T17:44:25.447Z,13.15
2023-01-17T17:46:54.259Z,11.50
2023-01-17T17:49:25.442Z,10.00
2023-01-17T17:51:55.255Z,9.43
2023-01-17T17:54:26.536Z,9.25
2023-01-17T17:57:01.973Z,8.95
2023-01-17T17:59:34.238Z,5.70
2023-01-17T18:02:06.741Z,5.80
2023-01-17T18:04:35.926Z,7.23
2023-01-17T18:07:04.805Z,7.50
2023-01-17T18:09:36.331Z,5.70
2023-01-17T18:12:05.101Z,7.57
2023-01-17T18:18:24.958Z,9.57
2023-01-17T18:21:06.434Z,7.82
2023-01-17T18:23:35.111Z,7.65
2023-01-17T18:26:15.913Z,7.93
2023-01-17T18:29:03.661Z,11.85
2023-01-17T18:31:39.099Z,13.23
2023-01-17T18:34:31.612Z,13.00
2023-01-17T18:37:12.286Z,15.02
2023-01-17T18:39:43.693Z,9.07
2023-01-17T18:42:12.946Z,7.47
2023-01-17T18:44:41.818Z,8.57
2023-01-17T18:47:27.816Z,6.32
2023-01-17T18:49:59.294Z,6.30
2023-01-17T18:52:33.104Z,8.18
2023-01-17T18:55:28.369Z,6.95
2023-01-17T18:58:05.554Z,6.30
2023-01-17T19:00:37.710Z,7.80
2023-01-17T19:03:09.927Z,6.93
2023-01-17T19:05:38.861Z,6.70
2023-01-17T19:08:10.352Z,8.27
2023-01-17T19:10:39.108Z,10.97
2023-01-17T19:13:08.209Z,6.45
2023-01-17T19:15:37.015Z,7.43
2023-01-17T19:18:07.346Z,6.85
2023-01-17T19:20:36.536Z,9.23
2023-01-17T19:23:05.525Z,16.10
2023-01-17T19:25:43.112Z,25.17
2023-01-17T19:28:12.125Z,9.50
2023-01-17T19:30:45.676Z,11.82
2023-01-17T19:33:16.958Z,8.73
2023-01-17T19:35:45.544Z,7.57
2023-01-17T19:38:14.362Z,7.70
2023-01-17T19:44:16.236Z,8.10
2023-01-17T19:46:46.207Z,7.53
2023-01-17T19:49:25.088Z,6.53
2023-01-17T19:51:55.286Z,7.32
2023-01-17T19:54:24.114Z,7.57
2023-01-17T19:57:02.116Z,6.85
2023-01-17T19:59:32.988Z,8.20
2023-01-17T20:02:02.150Z,8.67
2023-01-17T20:04:34.670Z,8.80
2023-01-17T20:07:09.758Z,10.45
2023-01-17T20:09:41.032Z,7.95
2023-01-17T20:12:10.887Z,8.27
2023-01-17T20:14:39.425Z,9.20
2023-01-17T20:17:07.821Z,8.88
2023-01-17T20:19:37.656Z,8.15
2023-01-17T20:22:08.674Z,7.70
2023-01-17T20:24:37.455Z,9.07
2023-01-17T20:27:08.711Z,8.00
2023-01-17T20:29:41.967Z,10.48
2023-01-17T20:32:10.749Z,8.38
2023-01-17T20:34:44.677Z,12.25
2023-01-17T20:37:25.047Z,10.48
2023-01-17T20:39:57.264Z,10.70
2023-01-17T20:42:29.843Z,21.25
2023-01-17T20:45:30.143Z,13.85
2023-01-17T20:48:02.111Z,23.45
2023-01-17T20:50:39.877Z,12.05
2023-01-17T20:53:08.998Z,38.27
2023-01-17T20:55:40.388Z,13.75
2023-01-17T20:58:09.542Z,26.35
2023-01-17T21:00:40.560Z,11.20
2023-01-17T21:03:13.205Z,13.75
2023-01-17T21:05:45.281Z,14.60
2023-01-17T21:08:23.779Z,50.22
2023-01-17T21:10:55.507Z,38.78
2023-01-17T21:14:36.986Z,51.58
2023-01-17T21:17:10.745Z,23.58
2023-01-17T21:19:42.804Z,41.10
2023-01-17T21:22:17.087Z,50.50
2023-01-17T21:24:54.213Z,29.77
2023-01-17T21:27:27.590Z,21.23
2023-01-17T21:29:57.716Z,16.70
2023-01-17T21:32:29.364Z,19.70
2023-01-17T21:35:01.294Z,21.27
2023-01-17T21:37:49.903Z,24.17
2023-01-17T21:40:20.637Z,24.83
2023-01-17T21:42:49.410Z,80.55
2023-01-17T21:45:19.915Z,38.23
2023-01-17T21:47:50.316Z,20.55
2023-01-17T21:50:33.047Z,14.05
2023-01-17T21:53:06.475Z,8.90
2023-01-17T21:55:53.572Z,10.95
2023-01-17T21:58:39.840Z,26.30
2023-01-17T22:01:12.195Z,47.25
2023-01-17T22:03:42.506Z,26.80
2023-01-17T22:06:16.270Z,18.55
2023-01-17T22:08:46.777Z,21.40
2023-01-17T22:11:21.098Z,12.17
2023-01-17T22:13:53.082Z,12.27
2023-01-17T22:16:26.658Z,13.75
2023-01-17T22:18:55.311Z,11.82
2023-01-17T22:21:26.160Z,12.00
2023-01-17T22:23:58.669Z,11.00
2023-01-17T22:26:31.687Z,9.20
2023-01-17T22:29:03.713Z,11.27
2023-01-17T22:31:33.001Z,11.18
2023-01-17T22:34:02.865Z,9.55
2023-01-17T22:36:34.442Z,9.80
2023-01-17T22:39:06.315Z,9.23
2023-01-17T22:41:35.243Z,10.10
2023-01-17T22:44:05.401Z,9.30
2023-01-17T22:46:37.271Z,12.43
2023-01-17T22:49:08.460Z,8.60
2023-01-17T22:51:38.105Z,9.57
2023-01-17T22:54:07.942Z,12.68
2023-01-17T22:56:36.524Z,10.82
2023-01-17T22:59:11.290Z,8.07
2023-01-17T23:01:41.458Z,11.83
2023-01-17T23:04:13.464Z,10.18
2023-01-17T23:06:42.525Z,9.07
2023-01-17T23:09:14.224Z,9.32
2023-01-17T23:11:44.725Z,9.00
2023-01-17T23:14:16.192Z,9.93
2023-01-17T23:17:04.651Z,10.95
2023-01-17T23:19:36.947Z,10.73
2023-01-17T23:22:23.399Z,9.93
2023-01-17T23:24:59.638Z,8.48
2023-01-17T23:27:46.736Z,9.13
2023-01-17T23:30:16.671Z,11.45
2023-01-17T23:32:46.631Z,11.00
2023-01-17T23:35:17.390Z,11.50
2023-01-17T23:38:04.120Z,9.02
2023-01-17T23:40:37.717Z,11.40
2023-01-17T23:43:26.765Z,7.65
2023-01-17T23:45:59.352Z,8.18
2023-01-17T23:49:38.071Z,8.98
2023-01-17T23:52:29.931Z,10.20
2023-01-17T23:55:03.595Z,8.23
2023-01-17T23:57:33.326Z,7.55
